Date,TemperatureHighF,TemperatureAvgF,TemperatureLowF,DewpointHighF,DewpointAvgF,DewpointLowF,HumidityHigh,HumidityAvg,HumidityLow,PressureMaxIn,PressureMinIn,WindSpeedMaxMPH,WindSpeedAvgMPH,GustSpeedMaxMPH,PrecipitationSumIn
2013-2-1,43,31,20,24,22,16,88,69,43,0.00,40.00,6,4,11,0.01
2013-2-2,44,32,21,24,21,18,87,65,40,0.00,40.00,6,4,9,0.01
2013-2-3,40,33,27,25,21,17,83,63,39,0.00,40.00,5,3,12,0.00
2013-2-4,40,30,22,27,23,19,88,77,52,0.00,40.00,6,3,11,0.00
2013-2-5,48,35,22,24,22,19,90,63,33,0.00,40.00,6,4,10,0.01
2013-2-6,47,36,26,25,22,19,77,58,38,0.00,40.00,11,5,19,0.01
2013-2-7,48,34,24,21,15,6,81,51,20,0.00,40.00,6,4,13,0.00
2013-2-8,48,37,27,19,17,12,59,45,24,0.00,40.00,11,4,23,0.00
2013-2-9,33,25,18,24,17,12,90,73,50,0.00,40.00,13,4,22,0.05
2013-2-10,28,22,19,21,17,15,91,83,71,0.00,40.00,7,3,15,0.02
2013-2-13,39,28,11,17,14,4,75,58,38,0.00,40.00,6,4,12,0.06
2013-2-14,42,30,16,20,16,6,83,57,40,0.00,40.00,6,4,12,0.04
2013-2-15,45,34,15,12,1,-4,59,27,13,0.00,40.00,7,4,17,0.00
2013-2-16,46,35,19,16,10,0,50,35,25,0.00,40.00,8,4,15,0.00
2013-2-17,45,37,23,15,7,3,67,31,17,0.00,40.00,8,5,18,0.00
2013-2-18,41,30,19,15,6,3,61,38,21,0.00,40.00,10,5,19,0.00
2013-2-19,45,35,16,6,4,-4,53,29,14,0.00,40.00,7,4,14,0.00
2013-2-20,35,28,21,29,20,8,92,72,33,0.00,40.00,6,3,19,0.15
2013-2-21,35,26,18,22,18,15,91,75,56,0.00,40.00,7,3,16,0.04
2013-2-22,34,24,15,22,16,8,91,74,43,0.00,40.00,8,3,20,0.02
2013-2-23,33,24,10,21,12,5,92,64,43,0.00,40.00,6,3,12,0.02
2013-2-24,34,23,15,20,10,1,91,61,24,0.00,40.00,8,4,14,0.07
2013-2-25,39,28,14,12,7,-1,60,41,24,0.00,40.00,7,4,17,0.01
2013-2-26,31,25,15,10,6,-6,69,45,27,0.00,40.00,11,5,22,0.00
2013-2-27,36,28,11,4,1,-5,49,32,23,0.00,40.00,9,5,17,0.00
2013-2-28,42,29,14,8,4,-1,53,36,21,0.00,40.00,9,5,17,0.00